Time;durP1;ratioP1;P1;durP2;ratioP2;P2;SDS_P1;SDS_P2;PMS_P1;PMS_P2;Temp;Humidity;BMP_temperature;BMP_pressure;BME280_temperature;BME280_humidity;BME280_pressure;Samples;Min_cycle;Max_cycle;Signal;HPM_P1;HPM_P2
2023/07/19 00:01:45;;;;;;;6.00;2.20;;;14.90;19.50;;;;;;6247653;23;20226;-94
2023/07/19 00:04:12;;;;;;;2.37;1.63;;;14.90;1.00;;;;;;6247732;23;20173;-94
2023/07/19 00:06:39;;;;;;;4.23;2.00;;;14.80;1.00;;;;;;6247372;23;20212;-93
2023/07/19 00:09:07;;;;;;;3.10;1.80;;;14.80;1.00;;;;;;6247350;23;20187;-93
2023/07/19 00:11:34;;;;;;;5.07;2.20;;;14.70;1.00;;;;;;6247047;23;20207;-95
2023/07/19 00:14:05;;;;;;;2.80;1.73;;;14.70;1.00;;;;;;6247442;23;20196;-93
2023/07/19 00:16:32;;;;;;;3.53;2.00;;;14.60;6.30;;;;;;6247311;23;20171;-94
2023/07/19 00:18:59;;;;;;;3.60;2.20;;;14.70;7.60;;;;;;6247398;23;20189;-93
2023/07/19 00:21:26;;;;;;;5.00;2.00;;;14.70;11.00;;;;;;6247094;23;20188;-93
2023/07/19 00:23:53;;;;;;;4.00;2.23;;;14.70;21.00;;;;;;6247461;23;20202;-92
2023/07/19 00:26:21;;;;;;;4.60;2.37;;;14.70;37.00;;;;;;6247029;23;20171;-93
2023/07/19 00:28:48;;;;;;;3.43;2.17;;;14.70;36.30;;;;;;6247420;23;20513;-93
2023/07/19 00:31:14;;;;;;;6.60;2.23;;;14.70;59.10;;;;;;6247527;23;20257;-91
2023/07/19 00:33:41;;;;;;;4.33;2.00;;;14.70;86.00;;;;;;6247801;23;20175;-93
2023/07/19 00:36:08;;;;;;;4.50;2.37;;;14.80;99.90;;;;;;6247285;23;20253;-92
2023/07/19 00:38:35;;;;;;;4.17;2.33;;;14.80;99.90;;;;;;6247929;23;20206;-94
2023/07/19 00:41:02;;;;;;;2.23;1.90;;;14.90;96.50;;;;;;6247361;23;20254;-95
2023/07/19 00:43:30;;;;;;;3.40;2.17;;;14.90;90.20;;;;;;6247188;23;20684;-94
2023/07/19 00:45:57;;;;;;;3.13;2.23;;;14.90;98.30;;;;;;6247202;23;20226;-93
2023/07/19 00:48:25;;;;;;;4.87;2.40;;;14.90;92.10;;;;;;6247185;23;20626;-92
2023/07/19 00:50:53;;;;;;;5.17;2.40;;;14.90;98.10;;;;;;6247319;23;20246;-92
2023/07/19 00:53:21;;;;;;;5.57;2.30;;;15.00;84.60;;;;;;6248083;23;20254;-94
2023/07/19 00:55:50;;;;;;;4.03;2.20;;;14.90;93.50;;;;;;6248838;23;20179;-93
2023/07/19 00:58:18;;;;;;;3.37;2.30;;;14.90;99.90;;;;;;6249421;23;20165;-93
2023/07/19 01:00:46;;;;;;;5.40;2.40;;;14.90;99.90;;;;;;6248966;23;20626;-93
2023/07/19 01:03:13;;;;;;;3.70;2.30;;;14.90;99.90;;;;;;6248625;23;20175;-94
2023/07/19 01:05:41;;;;;;;4.43;2.92;;;14.90;99.90;;;;;;6249693;23;20169;-94
2023/07/19 01:08:07;;;;;;;3.07;2.30;;;14.90;99.90;;;;;;6249095;23;20175;-94
2023/07/19 01:10:34;;;;;;;3.73;2.30;;;14.90;99.90;;;;;;6249275;23;20199;-93
2023/07/19 01:13:05;;;;;;;4.00;2.10;;;15.00;99.90;;;;;;6249013;23;20171;-93
2023/07/19 01:15:32;;;;;;;6.03;2.33;;;15.00;99.90;;;;;;6249077;23;20174;-93
2023/07/19 01:18:00;;;;;;;4.20;2.60;;;15.10;99.90;;;;;;6249075;23;20176;-93
2023/07/19 01:20:27;;;;;;;4.80;2.50;;;15.10;99.90;;;;;;6248628;23;20600;-94
2023/07/19 01:22:56;;;;;;;6.63;2.67;;;15.20;99.90;;;;;;6248725;23;20206;-95
2023/07/19 01:25:23;;;;;;;3.80;2.30;;;15.20;99.90;;;;;;6249380;23;20197;-94
2023/07/19 01:27:50;;;;;;;4.65;2.50;;;15.30;99.90;;;;;;6248910;23;20242;-94
2023/07/19 01:30:17;;;;;;;3.60;2.47;;;15.30;99.90;;;;;;6248699;23;20650;-93
2023/07/19 01:32:45;;;;;;;8.20;2.77;;;15.30;99.90;;;;;;6248556;23;20254;-94
2023/07/19 01:35:12;;;;;;;4.32;2.80;;;15.30;99.90;;;;;;6248761;23;20233;-93
2023/07/19 01:37:39;;;;;;;4.20;2.40;;;15.30;99.90;;;;;;6248097;23;20169;-92
2023/07/19 01:40:11;;;;;;;4.05;2.55;;;15.30;99.90;;;;;;6248872;23;20169;-93
2023/07/19 01:42:39;;;;;;;5.93;2.37;;;15.30;98.00;;;;;;6249099;23;20191;-94
2023/07/19 01:45:06;;;;;;;3.85;2.72;;;15.20;78.10;;;;;;6248241;23;20170;-93
2023/07/19 01:47:33;;;;;;;4.70;2.40;;;15.10;99.00;;;;;;6248538;23;20254;-94
2023/07/19 01:50:00;;;;;;;6.43;2.40;;;15.10;99.90;;;;;;6248907;23;20223;-94
2023/07/19 01:52:27;;;;;;;3.70;2.43;;;15.10;99.90;;;;;;6248640;23;20176;-94
2023/07/19 01:54:54;;;;;;;5.57;2.50;;;15.00;99.90;;;;;;6248885;23;20508;-94
2023/07/19 01:57:23;;;;;;;3.40;2.60;;;14.90;99.90;;;;;;6248844;23;20171;-94
2023/07/19 01:59:50;;;;;;;4.90;2.50;;;14.90;99.90;;;;;;6248832;23;20178;-93
2023/07/19 02:02:16;;;;;;;4.70;3.00;;;14.80;99.90;;;;;;6248391;23;20203;-94
2023/07/19 02:04:43;;;;;;;3.30;2.37;;;14.70;99.90;;;;;;6248421;23;20254;-93
2023/07/19 02:07:10;;;;;;;3.87;2.20;;;14.70;99.90;;;;;;6248316;23;20199;-95
2023/07/19 02:09:37;;;;;;;4.00;2.70;;;14.60;99.90;;;;;;6248001;23;20684;-94
2023/07/19 02:12:04;;;;;;;3.60;2.50;;;14.60;99.90;;;;;;6248221;23;20163;-94
2023/07/19 02:14:32;;;;;;;3.20;2.63;;;14.60;1.00;;;;;;6247906;23;20623;-94
2023/07/19 02:16:59;;;;;;;4.37;2.60;;;14.50;1.00;;;;;;6248298;23;20203;-93
2023/07/19 02:19:26;;;;;;;4.47;2.73;;;14.50;1.00;;;;;;6248385;22;20216;-94
2023/07/19 02:21:53;;;;;;;4.43;2.67;;;14.50;1.00;;;;;;6247807;22;20238;-93
2023/07/19 02:24:20;;;;;;;3.80;2.90;;;14.40;1.00;;;;;;6248126;23;20199;-94
2023/07/19 02:26:46;;;;;;;3.47;2.50;;;14.40;1.00;;;;;;6248031;23;20251;-95
2023/07/19 02:29:13;;;;;;;3.93;3.00;;;14.40;1.00;;;;;;6248440;23;20273;-94
2023/07/19 02:31:41;;;;;;;5.40;2.67;;;14.40;1.00;;;;;;6248431;23;20176;-93
2023/07/19 02:34:09;;;;;;;5.00;2.40;;;14.40;1.00;;;;;;6248457;23;20254;-92
2023/07/19 02:36:36;;;;;;;6.37;2.53;;;14.40;1.00;;;;;;6247850;23;20629;-92
2023/07/19 02:39:04;;;;;;;7.03;3.40;;;14.40;1.00;;;;;;6248129;23;20191;-94
2023/07/19 02:41:31;;;;;;;4.57;2.93;;;14.40;1.00;;;;;;6248503;23;20174;-93
2023/07/19 02:43:58;;;;;;;7.53;3.13;;;14.40;1.00;;;;;;6247916;23;20618;-93
2023/07/19 02:46:25;;;;;;;5.00;2.97;;;14.50;1.00;;;;;;6247932;23;20176;-92
2023/07/19 02:48:53;;;;;;;4.07;2.50;;;14.50;1.00;;;;;;6247867;23;20203;-93
2023/07/19 02:51:20;;;;;;;4.97;2.73;;;14.60;1.00;;;;;;6247940;23;20176;-94
2023/07/19 02:53:47;;;;;;;5.40;3.10;;;14.60;1.00;;;;;;6248135;23;20249;-92
2023/07/19 02:56:14;;;;;;;4.50;2.50;;;14.70;1.00;;;;;;6248354;23;20254;-92
2023/07/19 02:58:44;;;;;;;5.33;2.67;;;14.70;1.00;;;;;;6248290;23;20227;-92
2023/07/19 03:01:14;;;;;;;3.60;2.80;;;14.80;1.00;;;;;;6248299;23;20246;-93
2023/07/19 03:03:41;;;;;;;4.40;2.70;;;14.80;1.00;;;;;;6248255;23;20190;-94
2023/07/19 03:06:10;;;;;;;6.70;2.93;;;14.90;1.00;;;;;;6247553;23;20202;-93
2023/07/19 03:08:37;;;;;;;4.57;2.47;;;14.90;1.00;;;;;;6247917;23;20630;-93
2023/07/19 03:11:04;;;;;;;5.07;2.90;;;15.00;1.00;;;;;;6247593;23;20187;-93
2023/07/19 03:13:31;;;;;;;5.17;3.50;;;15.10;1.00;;;;;;6247676;23;20184;-94
2023/07/19 03:15:58;;;;;;;5.00;2.53;;;15.00;1.00;;;;;;6247588;23;20173;-92
2023/07/19 03:18:25;;;;;;;4.73;2.90;;;15.10;1.00;;;;;;6246865;23;20699;-93
2023/07/19 03:20:57;;;;;;;5.43;2.77;;;15.10;1.00;;;;;;6247797;23;20174;-92
2023/07/19 03:23:25;;;;;;;3.37;2.57;;;15.10;1.00;;;;;;6247836;23;20189;-93
2023/07/19 03:25:53;;;;;;;6.17;3.10;;;15.10;1.00;;;;;;6247953;23;20180;-92
2023/07/19 03:28:19;;;;;;;3.87;2.90;;;15.10;1.00;;;;;;6247293;23;20181;-93
2023/07/19 03:30:46;;;;;;;4.83;3.10;;;15.10;1.00;;;;;;6247401;23;20189;-94
2023/07/19 03:33:13;;;;;;;6.00;3.37;;;15.20;1.00;;;;;;6247120;23;20182;-94
2023/07/19 03:35:40;;;;;;;5.15;3.15;;;15.30;1.00;;;;;;6247532;23;20207;-95
2023/07/19 03:38:07;;;;;;;6.05;3.45;;;15.40;1.00;;;;;;6247857;23;20181;-95
2023/07/19 03:40:35;;;;;;;5.33;3.43;;;15.40;1.00;;;;;;6247871;23;20168;-94
2023/07/19 03:43:02;;;;;;;6.07;3.90;;;15.50;1.00;;;;;;6247581;23;20172;-93
2023/07/19 03:45:29;;;;;;;11.57;5.43;;;15.60;1.00;;;;;;6247805;23;20170;-95
2023/07/19 03:47:56;;;;;;;7.13;4.28;;;15.70;1.00;;;;;;6247674;23;20234;-94
2023/07/19 03:50:24;;;;;;;9.55;4.55;;;15.80;99.90;;;;;;6247674;23;20191;-94
2023/07/19 03:52:50;;;;;;;8.65;4.25;;;15.90;99.90;;;;;;6247873;23;20172;-94
2023/07/19 03:55:17;;;;;;;8.45;3.70;;;16.00;99.90;;;;;;6247671;23;20172;-95
2023/07/19 03:57:47;;;;;;;7.65;4.13;;;16.00;99.90;;;;;;6247074;23;20643;-95
2023/07/19 04:00:14;;;;;;;8.07;4.20;;;16.10;99.90;;;;;;6248003;23;20166;-94
2023/07/19 04:02:40;;;;;;;7.20;3.88;;;16.20;99.90;;;;;;6246953;23;20176;-95
2023/07/19 04:05:07;;;;;;;6.60;3.78;;;16.30;99.90;;;;;;6247033;23;20182;-94
2023/07/19 04:07:34;;;;;;;6.75;3.75;;;16.40;99.90;;;;;;6247478;23;20355;-96
2023/07/19 04:10:01;;;;;;;7.10;3.60;;;16.50;99.90;;;;;;6247521;23;20223;-94
2023/07/19 04:12:28;;;;;;;6.80;4.13;;;16.60;93.80;;;;;;6247516;23;20504;-95
2023/07/19 04:14:57;;;;;;;7.22;4.78;;;16.60;74.80;;;;;;6247634;23;20213;-94
2023/07/19 04:17:24;;;;;;;8.23;3.70;;;16.70;54.90;;;;;;6247398;22;20526;-95
2023/07/19 04:19:51;;;;;;;7.43;3.85;;;16.80;44.40;;;;;;6247393;23;20196;-94
2023/07/19 04:22:17;;;;;;;8.60;4.25;;;16.80;15.30;;;;;;6247438;23;20169;-94
2023/07/19 04:24:44;;;;;;;8.85;4.15;;;16.90;27.00;;;;;;6247842;23;20262;-94
2023/07/19 04:27:11;;;;;;;7.38;4.70;;;16.90;14.90;;;;;;6247299;23;20175;-94
2023/07/19 04:29:38;;;;;;;9.18;5.40;;;17.00;7.10;;;;;;6249546;23;20173;-94
2023/07/19 04:32:07;;;;;;;12.82;5.65;;;17.00;1.00;;;;;;6249815;23;20168;-94
2023/07/19 04:34:33;;;;;;;15.73;6.20;;;17.10;1.00;;;;;;6249812;23;20168;-94
2023/07/19 04:37:00;;;;;;;8.93;5.30;;;17.20;1.00;;;;;;6249425;23;20168;-93
2023/07/19 04:39:27;;;;;;;9.10;5.53;;;17.30;1.00;;;;;;6249314;23;20168;-95
2023/07/19 04:41:54;;;;;;;10.35;4.93;;;17.40;1.00;;;;;;6250027;23;20179;-96
2023/07/19 04:44:20;;;;;;;8.30;4.75;;;17.50;1.00;;;;;;6249651;23;20176;-95
2023/07/19 04:46:47;;;;;;;6.85;4.80;;;17.60;1.00;;;;;;6249153;23;20168;-95
2023/07/19 04:49:15;;;;;;;8.50;4.75;;;17.70;1.00;;;;;;6249363;23;20172;-96
2023/07/19 04:51:43;;;;;;;8.35;4.65;;;17.70;1.00;;;;;;6248949;23;20723;-94
2023/07/19 04:54:10;;;;;;;7.78;4.70;;;17.90;1.00;;;;;;6249670;23;20176;-94
2023/07/19 04:56:37;;;;;;;10.13;5.28;;;18.20;1.00;;;;;;6249211;23;20172;-96
2023/07/19 04:59:03;;;;;;;7.03;4.93;;;18.50;1.00;;;;;;6249447;23;20172;-96
2023/07/19 05:01:30;;;;;;;14.70;5.90;;;18.90;1.00;;;;;;6248979;23;20816;-94
2023/07/19 05:03:57;;;;;;;8.98;5.45;;;19.30;1.00;;;;;;6249680;23;20166;-96
2023/07/19 05:06:25;;;;;;;8.80;4.75;;;19.50;1.00;;;;;;6249026;22;20164;-96
2023/07/19 05:08:52;;;;;;;5.57;4.55;;;19.50;1.00;;;;;;6249624;23;20175;-96
2023/07/19 05:11:19;;;;;;;10.40;4.40;;;19.50;1.00;;;;;;6249684;23;20188;-94
2023/07/19 05:13:46;;;;;;;5.90;3.88;;;19.60;1.00;;;;;;6249265;23;20203;-93
2023/07/19 05:16:13;;;;;;;7.90;4.10;;;19.70;1.00;;;;;;6248856;23;20169;-94
2023/07/19 05:18:40;;;;;;;6.38;4.15;;;19.70;1.00;;;;;;6248701;23;20192;-94
2023/07/19 05:21:07;;;;;;;31.25;8.57;;;19.70;1.00;;;;;;6248818;23;20251;-94
2023/07/19 05:23:36;;;;;;;32.53;17.35;;;19.80;1.00;;;;;;6249033;23;20168;-94
2023/07/19 05:26:03;;;;;;;10.27;5.93;;;20.00;1.00;;;;;;6249194;23;20175;-93
2023/07/19 05:28:30;;;;;;;8.90;4.35;;;20.40;1.00;;;;;;6249126;23;20179;-93
2023/07/19 05:31:01;;;;;;;6.30;3.83;;;20.60;1.00;;;;;;6248638;23;20188;-94
2023/07/19 05:33:28;;;;;;;16.77;11.20;;;20.70;1.00;;;;;;6248678;23;20184;-93
2023/07/19 05:35:55;;;;;;;7.68;4.97;;;20.60;1.00;;;;;;6248816;23;20168;-94
2023/07/19 05:38:22;;;;;;;8.05;4.00;;;20.50;1.00;;;;;;6249026;23;20172;-93
2023/07/19 05:40:50;;;;;;;13.75;6.88;;;20.50;1.00;;;;;;6248046;23;20169;-94
2023/07/19 05:43:18;;;;;;;108.05;41.17;;;20.60;1.00;;;;;;6248615;23;20168;-93
2023/07/19 05:45:45;;;;;;;19.88;8.93;;;20.90;1.00;;;;;;6249051;23;20168;-95
2023/07/19 05:48:12;;;;;;;7.43;3.72;;;21.30;1.00;;;;;;6248740;23;20231;-94
2023/07/19 05:50:38;;;;;;;4.35;3.15;;;21.50;1.00;;;;;;6248370;23;20215;-93
2023/07/19 05:53:05;;;;;;;9.02;4.82;;;21.80;1.00;;;;;;6248745;23;20175;-93
2023/07/19 05:55:32;;;;;;;21.23;11.50;;;22.10;99.90;;;;;;6248706;23;20175;-93
2023/07/19 05:58:00;;;;;;;4.05;2.90;;;22.50;99.90;;;;;;6247646;23;20174;-93
2023/07/19 06:00:28;;;;;;;5.00;2.83;;;22.60;99.90;;;;;;6247888;23;20485;-94
2023/07/19 06:02:55;;;;;;;4.47;2.72;;;22.60;99.90;;;;;;6248418;23;20169;-95
2023/07/19 06:05:24;;;;;;;4.13;2.67;;;22.80;99.90;;;;;;6248773;23;20179;-93
2023/07/19 06:07:51;;;;;;;32.50;17.23;;;23.00;99.90;;;;;;6248371;23;20230;-95
2023/07/19 06:10:18;;;;;;;31.88;18.63;;;23.30;99.90;;;;;;6248505;23;20188;-94
2023/07/19 06:12:46;;;;;;;5.63;3.42;;;23.40;99.90;;;;;;6247712;23;20176;-95
2023/07/19 06:15:14;;;;;;;6.82;2.47;;;23.50;99.90;;;;;;6247972;23;20611;-95
2023/07/19 06:17:41;;;;;;;7.10;2.83;;;23.60;99.90;;;;;;6248671;23;20168;-94
2023/07/19 06:20:10;;;;;;;6.43;3.97;;;23.60;99.90;;;;;;6247755;23;20196;-95
2023/07/19 06:22:37;;;;;;;5.85;2.70;;;23.70;99.90;;;;;;6248547;23;20168;-94
2023/07/19 06:25:04;;;;;;;4.03;2.70;;;23.90;99.90;;;;;;6248515;23;20231;-93
2023/07/19 06:27:31;;;;;;;3.83;2.38;;;24.00;99.90;;;;;;6248213;23;20182;-92
2023/07/19 06:29:58;;;;;;;5.57;2.97;;;24.00;99.90;;;;;;6247501;23;20178;-94
2023/07/19 06:32:27;;;;;;;4.32;2.60;;;24.00;99.90;;;;;;6248395;23;20169;-94
2023/07/19 06:34:53;;;;;;;4.47;2.70;;;23.90;99.90;;;;;;6247345;23;20168;-93
2023/07/19 06:37:20;;;;;;;26.73;9.40;;;23.90;99.90;;;;;;6248068;23;20178;-93
2023/07/19 06:39:48;;;;;;;11.18;4.68;;;24.00;99.90;;;;;;6247972;23;20175;-93
2023/07/19 06:42:15;;;;;;;13.35;5.38;;;24.10;99.90;;;;;;6247034;23;20168;-92
2023/07/19 06:44:42;;;;;;;21.00;8.60;;;24.30;99.90;;;;;;6247429;23;20253;-93
2023/07/19 06:47:08;;;;;;;6.68;3.20;;;24.40;99.90;;;;;;6247001;23;20742;-92
2023/07/19 06:49:37;;;;;;;12.82;6.10;;;24.60;99.90;;;;;;6247446;23;20175;-94
2023/07/19 06:52:04;;;;;;;7.90;3.30;;;24.80;99.90;;;;;;6247981;23;20748;-94
2023/07/19 06:54:31;;;;;;;5.88;3.63;;;25.10;99.90;;;;;;6247824;23;20251;-92
2023/07/19 06:56:58;;;;;;;5.47;2.80;;;25.40;99.90;;;;;;6247159;23;20638;-94
2023/07/19 06:59:25;;;;;;;4.85;2.72;;;25.60;99.90;;;;;;6247483;23;20508;-91
2023/07/19 07:01:52;;;;;;;6.30;3.20;;;25.70;99.90;;;;;;6247755;23;20164;-93
2023/07/19 07:04:19;;;;;;;3.35;2.47;;;25.80;99.90;;;;;;6248095;23;20228;-92
2023/07/19 07:06:47;;;;;;;14.88;6.78;;;26.00;99.90;;;;;;6247532;23;20172;-92
2023/07/19 07:09:15;;;;;;;23.05;10.98;;;26.10;99.90;;;;;;6247390;23;20175;-92
2023/07/19 07:11:41;;;;;;;5.45;2.85;;;26.20;99.90;;;;;;6246841;23;20234;-93
2023/07/19 07:14:10;;;;;;;2.97;2.30;;;26.40;99.90;;;;;;6247608;23;20631;-93
2023/07/19 07:16:36;;;;;;;5.43;2.30;;;26.50;99.90;;;;;;6247365;23;20255;-92
2023/07/19 07:19:04;;;;;;;5.28;2.55;;;26.60;99.90;;;;;;6247004;23;20196;-92
2023/07/19 07:21:31;;;;;;;6.28;2.20;;;26.60;99.90;;;;;;6247469;23;20172;-92
2023/07/19 07:23:59;;;;;;;2.95;1.95;;;26.60;99.90;;;;;;6246140;23;20264;-90
2023/07/19 07:26:26;;;;;;;12.73;5.82;;;26.60;99.90;;;;;;6244729;22;20246;-92
2023/07/19 07:28:53;;;;;;;4.35;2.40;;;26.60;99.90;;;;;;6246112;23;20160;-92
2023/07/19 07:31:20;;;;;;;10.18;4.90;;;26.60;99.90;;;;;;6245944;23;20370;-91
2023/07/19 07:33:47;;;;;;;6.20;2.33;;;26.80;99.90;;;;;;6246148;23;20222;-92
2023/07/19 07:36:13;;;;;;;3.95;2.30;;;27.00;99.90;;;;;;6245967;23;20247;-91
2023/07/19 07:38:40;;;;;;;3.22;2.25;;;27.10;99.90;;;;;;6246308;23;20183;-91
2023/07/19 07:41:11;;;;;;;6.40;3.10;;;27.30;99.90;;;;;;6245177;23;20690;-90
2023/07/19 07:43:38;;;;;;;11.65;2.85;;;27.20;99.90;;;;;;6246015;23;20188;-91
2023/07/19 07:46:05;;;;;;;5.85;2.50;;;27.10;99.90;;;;;;6245326;23;20168;-90
2023/07/19 07:48:32;;;;;;;6.35;2.53;;;27.10;99.90;;;;;;6244927;22;20168;-89
2023/07/19 07:50:59;;;;;;;3.67;2.20;;;27.00;99.90;;;;;;6245025;23;20188;-90
2023/07/19 07:53:26;;;;;;;3.47;1.85;;;26.80;99.90;;;;;;6245200;23;20175;-91
2023/07/19 07:55:53;;;;;;;4.70;2.13;;;26.70;99.90;;;;;;6244633;22;20478;-91
2023/07/19 07:58:21;;;;;;;2.75;1.80;;;26.60;99.90;;;;;;6245189;23;20218;-90
2023/07/19 08:00:48;;;;;;;5.10;2.10;;;26.50;99.90;;;;;;6245847;23;20172;-91
2023/07/19 08:03:15;;;;;;;3.20;1.88;;;26.40;99.90;;;;;;6245415;23;20251;-91
2023/07/19 08:05:42;;;;;;;3.50;2.53;;;26.30;99.90;;;;;;6245257;23;20255;-91
2023/07/19 08:08:09;;;;;;;4.10;2.10;;;26.30;99.90;;;;;;6245293;23;20168;-93
2023/07/19 08:10:38;;;;;;;2.47;1.80;;;26.40;99.90;;;;;;6245805;23;20179;-91
2023/07/19 08:13:04;;;;;;;3.13;1.80;;;26.70;99.90;;;;;;6246021;23;20172;-90
2023/07/19 08:15:33;;;;;;;11.00;3.92;;;26.80;99.90;;;;;;6245614;23;20259;-91
2023/07/19 08:18:00;;;;;;;3.60;2.00;;;26.90;99.90;;;;;;6245847;23;20203;-91
2023/07/19 08:20:27;;;;;;;3.53;2.33;;;26.80;99.90;;;;;;6245966;23;20158;-91
2023/07/19 08:22:54;;;;;;;3.55;1.98;;;26.70;99.90;;;;;;6245185;22;20226;-90
2023/07/19 08:25:21;;;;;;;4.15;2.08;;;26.50;99.90;;;;;;6245739;23;20176;-90
2023/07/19 08:27:48;;;;;;;3.05;1.98;;;26.40;99.90;;;;;;6245979;23;20172;-90
2023/07/19 08:30:16;;;;;;;20.52;8.18;;;26.40;99.90;;;;;;6245355;23;20172;-91
2023/07/19 08:32:46;;;;;;;4.65;2.10;;;26.40;99.90;;;;;;6245543;23;20685;-90
2023/07/19 08:35:14;;;;;;;7.35;2.38;;;26.50;99.90;;;;;;6246045;23;20487;-91
2023/07/19 08:37:42;;;;;;;21.38;8.48;;;26.60;99.90;;;;;;6245545;23;20176;-91
2023/07/19 08:40:10;;;;;;;11.30;5.15;;;26.80;99.90;;;;;;6245563;23;20626;-91
2023/07/19 08:42:38;;;;;;;2.90;1.80;;;26.90;99.90;;;;;;6245083;23;20170;-89
2023/07/19 08:45:07;;;;;;;4.57;2.15;;;27.10;99.90;;;;;;6245732;23;20247;-91
2023/07/19 08:47:35;;;;;;;3.78;1.80;;;27.30;99.90;;;;;;6245905;23;20175;-91
2023/07/19 08:50:05;;;;;;;12.48;4.80;;;27.60;99.90;;;;;;6245710;23;20222;-90
2023/07/19 08:52:33;;;;;;;7.60;3.20;;;27.80;99.90;;;;;;6244999;23;20191;-90
2023/07/19 08:55:00;;;;;;;2.20;1.75;;;28.00;99.90;;;;;;6245773;23;20172;-90
2023/07/19 08:57:27;;;;;;;3.25;1.85;;;28.30;99.90;;;;;;6245517;23;20256;-90
2023/07/19 08:59:54;;;;;;;4.07;2.20;;;28.40;99.90;;;;;;6244196;22;20168;-90
2023/07/19 09:02:21;;;;;;;7.10;3.65;;;28.40;99.90;;;;;;6245041;23;20200;-90
2023/07/19 09:05:09;;;;;;;3.58;1.88;;;28.20;99.90;;;;;;6244964;23;20247;-90
2023/07/19 09:07:37;;;;;;;6.68;2.78;;;28.10;99.90;;;;;;6244966;23;20172;-91
2023/07/19 09:10:05;;;;;;;5.80;2.47;;;28.00;99.90;;;;;;6245709;23;20165;-91
2023/07/19 09:12:37;;;;;;;4.47;1.70;;;28.00;99.90;;;;;;6246203;23;20642;-92
2023/07/19 09:15:05;;;;;;;5.50;3.30;;;28.00;98.20;;;;;;6247346;23;20152;-91
2023/07/19 09:17:37;;;;;;;3.05;1.83;;;28.00;97.70;;;;;;6247583;23;20211;-92
2023/07/19 09:20:05;;;;;;;9.73;3.80;;;27.90;96.30;;;;;;6247284;23;20250;-92
2023/07/19 09:22:35;;;;;;;7.70;3.35;;;27.80;94.70;;;;;;6247555;23;20175;-91
2023/07/19 09:25:03;;;;;;;7.68;2.78;;;27.70;91.70;;;;;;6247899;23;20167;-92
2023/07/19 09:27:31;;;;;;;4.07;1.77;;;27.90;90.50;;;;;;6247187;23;20169;-91
2023/07/19 09:29:58;;;;;;;3.20;1.80;;;27.90;91.30;;;;;;6248041;23;20173;-92
2023/07/19 09:32:25;;;;;;;11.68;3.90;;;28.10;90.90;;;;;;6247623;23;20188;-93
2023/07/19 09:34:55;;;;;;;4.03;2.22;;;28.50;91.80;;;;;;6247561;23;20619;-91
2023/07/19 09:37:23;;;;;;;4.40;2.53;;;28.70;90.30;;;;;;6247057;23;20144;-92
2023/07/19 09:39:52;;;;;;;8.73;2.58;;;28.60;83.60;;;;;;6247552;23;20172;-91
2023/07/19 09:42:19;;;;;;;6.82;3.10;;;28.50;86.80;;;;;;6247392;23;20164;-92
2023/07/19 09:44:48;;;;;;;8.75;3.40;;;28.50;79.30;;;;;;6247682;23;20710;-91
2023/07/19 09:47:15;;;;;;;6.45;2.97;;;28.60;81.50;;;;;;6246900;23;20168;-91
2023/07/19 09:49:43;;;;;;;5.57;2.50;;;28.60;87.20;;;;;;6247381;23;20168;-92
2023/07/19 11:55:36;;;;;;;3.58;1.58;;;28.50;47.50;;;;;;5728277;24;20547;-95
2023/07/19 11:58:03;;;;;;;4.13;1.60;;;28.40;49.40;;;;;;5933591;23;20173;-91
2023/07/19 12:00:31;;;;;;;3.75;1.60;;;28.50;44.90;;;;;;6007876;23;20734;-91
2023/07/19 12:02:58;;;;;;;4.10;1.95;;;28.50;47.90;;;;;;6008318;23;20201;-90
2023/07/19 12:05:26;;;;;;;5.40;1.70;;;28.40;46.10;;;;;;6008196;23;20173;-92
2023/07/19 12:07:54;;;;;;;4.85;1.60;;;28.40;48.90;;;;;;6008317;23;20636;-91
2023/07/19 12:10:26;;;;;;;3.85;1.67;;;28.50;50.00;;;;;;6008550;23;20173;-92
2023/07/19 12:12:54;;;;;;;2.35;1.52;;;28.50;48.80;;;;;;6008465;23;20206;-92
2023/07/19 12:15:21;;;;;;;2.50;1.70;;;28.40;43.80;;;;;;6008366;23;20252;-91
2023/07/19 12:17:48;;;;;;;3.38;1.45;;;28.40;44.70;;;;;;6008453;23;20174;-92
2023/07/19 12:20:15;;;;;;;6.47;1.98;;;28.50;46.80;;;;;;5963333;23;1074748;-91
2023/07/19 12:22:43;;;;;;;3.28;1.83;;;28.60;44.60;;;;;;6008607;23;20564;-91
2023/07/19 12:25:10;;;;;;;4.82;1.80;;;28.80;50.90;;;;;;6008348;23;20173;-92
2023/07/19 12:27:38;;;;;;;2.83;1.63;;;28.90;49.10;;;;;;6008253;23;20169;-90
2023/07/19 12:30:09;;;;;;;2.08;1.40;;;28.90;48.30;;;;;;6008527;23;20208;-91
2023/07/19 12:32:36;;;;;;;2.72;1.50;;;28.90;49.30;;;;;;6008375;23;20649;-90
2023/07/19 12:35:03;;;;;;;3.90;1.70;;;28.80;44.40;;;;;;6008818;23;20172;-91
2023/07/19 12:37:30;;;;;;;7.22;1.67;;;28.80;45.80;;;;;;6008577;23;20185;-91
2023/07/19 12:39:57;;;;;;;2.38;1.70;;;28.60;39.70;;;;;;6008684;23;20233;-91
2023/07/19 12:42:25;;;;;;;4.88;1.48;;;28.30;40.80;;;;;;6008442;23;20253;-91
2023/07/19 12:44:52;;;;;;;2.17;1.50;;;28.00;38.10;;;;;;6009346;23;20206;-92
2023/07/19 12:47:20;;;;;;;3.65;1.63;;;27.80;39.00;;;;;;6009186;23;20249;-91
2023/07/19 12:49:47;;;;;;;4.18;1.65;;;27.70;40.40;;;;;;6009918;23;20545;-92
2023/07/19 12:52:14;;;;;;;3.58;1.45;;;28.10;42.80;;;;;;6010747;23;20273;-92
2023/07/19 12:54:40;;;;;;;2.60;1.45;;;28.60;43.70;;;;;;6010233;23;20177;-91
2023/07/19 12:57:08;;;;;;;3.15;1.50;;;28.70;44.30;;;;;;6010804;23;20518;-91
2023/07/19 12:59:35;;;;;;;2.60;1.50;;;28.40;45.70;;;;;;6010455;23;20170;-92
2023/07/19 13:02:02;;;;;;;3.25;1.63;;;28.20;45.10;;;;;;6011142;23;20212;-92
2023/07/19 13:04:31;;;;;;;4.85;1.63;;;27.90;46.70;;;;;;6011323;23;20262;-91
2023/07/19 13:06:58;;;;;;;2.75;1.27;;;27.70;49.10;;;;;;6011536;23;20186;-92
2023/07/19 13:09:25;;;;;;;3.33;1.38;;;27.60;47.00;;;;;;6011105;23;20184;-92
2023/07/19 13:11:52;;;;;;;2.88;1.50;;;27.50;47.20;;;;;;6011429;23;20645;-92
2023/07/19 13:14:19;;;;;;;3.63;1.70;;;27.40;49.60;;;;;;6010975;23;20180;-91
2023/07/19 13:16:46;;;;;;;3.75;1.58;;;27.50;50.20;;;;;;6010940;23;20174;-92
2023/07/19 13:19:13;;;;;;;3.47;1.70;;;27.50;51.50;;;;;;6011525;23;20272;-91
2023/07/19 13:21:41;;;;;;;4.78;1.80;;;27.50;54.80;;;;;;6009591;23;20252;-91
2023/07/19 13:24:08;;;;;;;3.72;1.80;;;27.50;50.30;;;;;;6010941;23;20177;-91
2023/07/19 13:26:35;;;;;;;2.92;1.92;;;27.40;50.90;;;;;;6010601;23;20186;-91
2023/07/19 13:29:02;;;;;;;3.90;1.73;;;27.00;50.30;;;;;;6010920;23;20260;-92
2023/07/19 13:31:29;;;;;;;1.83;1.40;;;26.70;52.00;;;;;;6011535;23;20178;-92
2023/07/19 13:33:57;;;;;;;5.97;3.15;;;26.50;52.60;;;;;;6010716;23;20288;-92
2023/07/19 13:36:32;;;;;;;3.70;1.63;;;26.30;57.10;;;;;;6011060;23;20177;-92
2023/07/19 13:39:00;;;;;;;3.33;1.83;;;26.20;57.90;;;;;;6010958;23;20247;-93
2023/07/19 13:41:27;;;;;;;2.35;1.85;;;26.20;57.40;;;;;;6011485;23;20218;-92
2023/07/19 13:43:54;;;;;;;3.45;1.70;;;26.00;58.20;;;;;;6010909;23;20173;-92
2023/07/19 13:46:21;;;;;;;3.28;1.70;;;26.00;63.40;;;;;;6011584;23;20174;-93
2023/07/19 13:48:48;;;;;;;3.60;1.50;;;26.10;63.30;;;;;;6010832;23;20621;-93
2023/07/19 13:51:15;;;;;;;4.03;1.90;;;26.20;66.40;;;;;;6011056;23;20202;-93
2023/07/19 13:53:42;;;;;;;4.57;1.98;;;26.10;80.70;;;;;;6011071;23;20265;-93
2023/07/19 13:56:11;;;;;;;3.03;1.88;;;26.10;65.00;;;;;;6011366;23;20260;-92
2023/07/19 13:58:39;;;;;;;8.13;1.90;;;26.00;65.80;;;;;;6011418;23;20178;-93
2023/07/19 14:01:06;;;;;;;3.65;1.60;;;25.80;66.70;;;;;;6011042;23;20557;-92
2023/07/19 14:03:33;;;;;;;2.38;1.60;;;25.70;66.30;;;;;;6011438;23;20178;-93
2023/07/19 14:06:00;;;;;;;3.03;1.63;;;25.60;62.10;;;;;;6011437;23;20277;-94
2023/07/19 14:08:27;;;;;;;3.33;1.70;;;25.50;62.20;;;;;;6011605;23;20185;-94
2023/07/19 14:10:54;;;;;;;2.95;2.08;;;25.40;64.40;;;;;;6010739;23;20182;-95
2023/07/19 14:13:22;;;;;;;3.85;1.67;;;25.30;61.20;;;;;;6011520;23;20661;-94
2023/07/19 14:15:49;;;;;;;2.42;1.63;;;25.30;64.10;;;;;;6011802;23;20664;-95
2023/07/19 14:18:16;;;;;;;3.42;1.65;;;25.40;62.50;;;;;;6011445;23;20220;-94
2023/07/19 14:20:43;;;;;;;2.30;1.70;;;25.60;69.00;;;;;;6011052;23;20225;-95
2023/07/19 14:23:10;;;;;;;1.52;1.27;;;25.70;73.20;;;;;;6072068;23;20179;-95
2023/07/19 14:25:37;;;;;;;4.75;1.60;;;25.60;70.30;;;;;;6096919;23;20262;-95
2023/07/19 14:28:04;;;;;;;2.72;1.70;;;25.60;75.90;;;;;;6097019;23;20207;-95
2023/07/19 14:30:32;;;;;;;2.55;1.40;;;25.70;73.90;;;;;;6097369;23;20250;-95
2023/07/19 14:32:59;;;;;;;1.80;1.40;;;25.90;76.80;;;;;;6097093;23;20663;-95
2023/07/19 14:35:26;;;;;;;3.58;1.60;;;25.90;77.10;;;;;;6096786;23;20725;-95
2023/07/19 14:37:53;;;;;;;4.15;1.40;;;25.90;77.60;;;;;;6126313;23;20175;-95
2023/07/19 14:40:20;;;;;;;2.70;1.40;;;25.70;78.20;;;;;;6126141;23;20199;-95
2023/07/19 14:42:48;;;;;;;4.38;1.85;;;25.50;77.30;;;;;;6126221;23;20245;-92
2023/07/19 14:45:15;;;;;;;1.75;1.42;;;25.50;79.00;;;;;;6125991;23;20174;-95
2023/07/19 14:47:43;;;;;;;7.53;1.85;;;25.60;82.70;;;;;;6126255;23;20242;-95
2023/07/19 14:50:10;;;;;;;2.85;1.67;;;26.00;78.20;;;;;;6126166;23;20203;-94
2023/07/19 14:52:37;;;;;;;4.10;1.80;;;26.20;84.00;;;;;;6126245;23;20230;-95